sensor_id;sensor_type;location;lat;lon;timestamp;pressure;altitude;pressure_sealevel;temperature;humidity
68634;BME280;55625;47.072;22.192;2023-05-11T00:02:12;99903.22;;;11.68;73.98
68634;BME280;55625;47.072;22.192;2023-05-11T00:04:38;99911.28;;;11.57;74.49
68634;BME280;55625;47.072;22.192;2023-05-11T00:07:04;99913.22;;;11.47;74.41
68634;BME280;55625;47.072;22.192;2023-05-11T00:09:29;99918.22;;;11.43;74.68
68634;BME280;55625;47.072;22.192;2023-05-11T00:11:56;99909.50;;;11.37;74.32
68634;BME280;55625;47.072;22.192;2023-05-11T00:14:21;99913.09;;;11.25;74.89
68634;BME280;55625;47.072;22.192;2023-05-11T00:16:47;99916.63;;;11.16;75.58
68634;BME280;55625;47.072;22.192;2023-05-11T00:19:13;99917.66;;;11.10;75.72
68634;BME280;55625;47.072;22.192;2023-05-11T00:21:39;99925.69;;;10.99;75.98
68634;BME280;55625;47.072;22.192;2023-05-11T00:24:05;99926.59;;;10.96;75.86
68634;BME280;55625;47.072;22.192;2023-05-11T00:26:31;99926.34;;;10.90;75.41
68634;BME280;55625;47.072;22.192;2023-05-11T00:28:57;99923.16;;;10.75;76.24
68634;BME280;55625;47.072;22.192;2023-05-11T00:31:23;99926.28;;;10.65;76.75
68634;BME280;55625;47.072;22.192;2023-05-11T00:33:49;99917.19;;;10.57;77.33
68634;BME280;55625;47.072;22.192;2023-05-11T00:36:15;99917.03;;;10.48;77.56
68634;BME280;55625;47.072;22.192;2023-05-11T00:38:40;99924.06;;;10.43;77.45
68634;BME280;55625;47.072;22.192;2023-05-11T00:41:07;99920.88;;;10.41;77.05
68634;BME280;55625;47.072;22.192;2023-05-11T00:43:33;99907.66;;;10.35;77.68
68634;BME280;55625;47.072;22.192;2023-05-11T00:46:01;99926.19;;;10.39;77.22
68634;BME280;55625;47.072;22.192;2023-05-11T00:48:27;99924.34;;;10.33;77.86
68634;BME280;55625;47.072;22.192;2023-05-11T00:50:53;99923.09;;;10.34;77.34
68634;BME280;55625;47.072;22.192;2023-05-11T00:53:20;99917.06;;;10.32;77.07
68634;BME280;55625;47.072;22.192;2023-05-11T00:55:46;99917.97;;;10.29;77.02
68634;BME280;55625;47.072;22.192;2023-05-11T00:58:12;99926.75;;;10.18;77.80
68634;BME280;55625;47.072;22.192;2023-05-11T01:00:39;99915.34;;;10.21;77.16
68634;BME280;55625;47.072;22.192;2023-05-11T01:03:05;99919.13;;;10.15;77.56
68634;BME280;55625;47.072;22.192;2023-05-11T01:08:51;99928.81;;;10.01;78.32
68634;BME280;55625;47.072;22.192;2023-05-11T01:11:50;99926.66;;;10.05;76.78
68634;BME280;55625;47.072;22.192;2023-05-11T01:14:40;99929.69;;;9.98;76.24
68634;BME280;55625;47.072;22.192;2023-05-11T01:17:48;99928.91;;;9.98;75.21
68634;BME280;55625;47.072;22.192;2023-05-11T01:20:21;99926.88;;;9.82;75.92
68634;BME280;55625;47.072;22.192;2023-05-11T01:23:01;99919.88;;;9.70;76.31
68634;BME280;55625;47.072;22.192;2023-05-11T01:28:59;99924.06;;;9.49;78.14
68634;BME280;55625;47.072;22.192;2023-05-11T01:31:30;99924.47;;;9.48;78.97
68634;BME280;55625;47.072;22.192;2023-05-11T01:34:05;99923.47;;;9.38;79.87
68634;BME280;55625;47.072;22.192;2023-05-11T01:36:38;99921.09;;;9.20;80.88
68634;BME280;55625;47.072;22.192;2023-05-11T01:39:09;99924.94;;;9.10;82.14
68634;BME280;55625;47.072;22.192;2023-05-11T01:41:39;99926.53;;;9.11;82.07
68634;BME280;55625;47.072;22.192;2023-05-11T01:44:08;99928.47;;;9.14;82.71
68634;BME280;55625;47.072;22.192;2023-05-11T01:46:35;99927.94;;;9.03;82.38
68634;BME280;55625;47.072;22.192;2023-05-11T01:49:05;99931.75;;;9.13;81.23
68634;BME280;55625;47.072;22.192;2023-05-11T01:51:35;99923.44;;;9.06;81.76
68634;BME280;55625;47.072;22.192;2023-05-11T01:54:06;99919.00;;;9.05;81.86
68634;BME280;55625;47.072;22.192;2023-05-11T01:56:35;99914.75;;;9.13;79.94
68634;BME280;55625;47.072;22.192;2023-05-11T01:59:02;99918.03;;;9.11;80.00
68634;BME280;55625;47.072;22.192;2023-05-11T02:01:29;99913.16;;;9.12;80.06
68634;BME280;55625;47.072;22.192;2023-05-11T02:03:58;99921.31;;;9.10;78.63
68634;BME280;55625;47.072;22.192;2023-05-11T02:06:28;99926.25;;;9.06;78.69
68634;BME280;55625;47.072;22.192;2023-05-11T02:08:57;99917.75;;;9.06;78.37
68634;BME280;55625;47.072;22.192;2023-05-11T02:11:25;99921.13;;;9.17;78.17
68634;BME280;55625;47.072;22.192;2023-05-11T02:13:55;99929.44;;;9.08;78.51
68634;BME280;55625;47.072;22.192;2023-05-11T02:16:23;99921.31;;;9.10;78.83
68634;BME280;55625;47.072;22.192;2023-05-11T02:18:52;99915.47;;;9.00;80.08
68634;BME280;55625;47.072;22.192;2023-05-11T02:21:19;99918.28;;;9.00;80.52
68634;BME280;55625;47.072;22.192;2023-05-11T02:23:47;99918.44;;;8.93;80.33
68634;BME280;55625;47.072;22.192;2023-05-11T02:26:16;99917.06;;;8.82;81.93
68634;BME280;55625;47.072;22.192;2023-05-11T02:28:41;99923.75;;;8.71;82.61
68634;BME280;55625;47.072;22.192;2023-05-11T02:31:18;99912.53;;;8.68;82.66
68634;BME280;55625;47.072;22.192;2023-05-11T02:33:48;99921.44;;;8.66;83.41
68634;BME280;55625;47.072;22.192;2023-05-11T02:36:19;99912.53;;;8.68;82.15
68634;BME280;55625;47.072;22.192;2023-05-11T02:38:47;99922.03;;;8.58;82.33
68634;BME280;55625;47.072;22.192;2023-05-11T02:41:20;99917.97;;;8.59;81.69
68634;BME280;55625;47.072;22.192;2023-05-11T02:43:50;99913.25;;;8.52;82.08
68634;BME280;55625;47.072;22.192;2023-05-11T02:46:22;99920.19;;;8.48;82.91
68634;BME280;55625;47.072;22.192;2023-05-11T02:48:55;99916.13;;;8.49;82.58
68634;BME280;55625;47.072;22.192;2023-05-11T02:51:31;99908.75;;;8.35;83.32
68634;BME280;55625;47.072;22.192;2023-05-11T02:53:58;99920.53;;;8.30;83.77
68634;BME280;55625;47.072;22.192;2023-05-11T02:56:26;99918.25;;;8.21;83.52
68634;BME280;55625;47.072;22.192;2023-05-11T02:58:52;99923.19;;;8.17;83.47
68634;BME280;55625;47.072;22.192;2023-05-11T03:01:18;99924.19;;;8.07;83.64
68634;BME280;55625;47.072;22.192;2023-05-11T03:03:44;99924.31;;;8.00;83.90
68634;BME280;55625;47.072;22.192;2023-05-11T03:06:10;99920.75;;;7.96;84.25
68634;BME280;55625;47.072;22.192;2023-05-11T03:08:37;99917.50;;;7.97;83.50
68634;BME280;55625;47.072;22.192;2023-05-11T03:11:03;99918.78;;;7.93;83.59
68634;BME280;55625;47.072;22.192;2023-05-11T03:13:30;99913.19;;;7.89;83.30
68634;BME280;55625;47.072;22.192;2023-05-11T03:15:57;99930.16;;;7.89;83.01
68634;BME280;55625;47.072;22.192;2023-05-11T03:18:24;99915.53;;;7.94;83.24
68634;BME280;55625;47.072;22.192;2023-05-11T03:20:51;99917.88;;;7.99;83.46
68634;BME280;55625;47.072;22.192;2023-05-11T03:23:17;99924.25;;;8.03;83.13
68634;BME280;55625;47.072;22.192;2023-05-11T03:25:44;99924.72;;;8.22;80.00
68634;BME280;55625;47.072;22.192;2023-05-11T03:28:12;99923.19;;;8.17;80.13
68634;BME280;55625;47.072;22.192;2023-05-11T03:30:39;99922.25;;;8.24;79.64
68634;BME280;55625;47.072;22.192;2023-05-11T03:33:08;99922.13;;;8.31;79.32
68634;BME280;55625;47.072;22.192;2023-05-11T03:35:35;99925.13;;;8.44;79.25
68634;BME280;55625;47.072;22.192;2023-05-11T03:38:03;99927.81;;;8.51;79.26
68634;BME280;55625;47.072;22.192;2023-05-11T03:40:30;99924.00;;;8.61;78.76
68634;BME280;55625;47.072;22.192;2023-05-11T03:43:01;99927.91;;;8.67;78.77
68634;BME280;55625;47.072;22.192;2023-05-11T03:45:29;99914.84;;;8.73;78.80
68634;BME280;55625;47.072;22.192;2023-05-11T03:47:56;99921.94;;;8.81;77.53
68634;BME280;55625;47.072;22.192;2023-05-11T03:50:22;99919.31;;;8.90;76.39
68634;BME280;55625;47.072;22.192;2023-05-11T03:52:49;99914.66;;;9.00;75.91
68634;BME280;55625;47.072;22.192;2023-05-11T03:55:15;99918.47;;;9.10;75.96
68634;BME280;55625;47.072;22.192;2023-05-11T03:57:41;99921.13;;;9.17;75.24
68634;BME280;55625;47.072;22.192;2023-05-11T04:00:09;99921.00;;;9.24;74.76
68634;BME280;55625;47.072;22.192;2023-05-11T04:02:36;99919.94;;;9.34;74.66
68634;BME280;55625;47.072;22.192;2023-05-11T04:05:09;99920.75;;;9.34;74.51
68634;BME280;55625;47.072;22.192;2023-05-11T04:07:37;99918.53;;;9.42;74.28
68634;BME280;55625;47.072;22.192;2023-05-11T04:10:04;99921.03;;;9.56;72.78
68634;BME280;55625;47.072;22.192;2023-05-11T04:12:31;99920.31;;;9.52;72.52
68634;BME280;55625;47.072;22.192;2023-05-11T04:14:57;99922.63;;;9.57;73.47
68634;BME280;55625;47.072;22.192;2023-05-11T04:17:23;99919.53;;;9.68;73.85
68634;BME280;55625;47.072;22.192;2023-05-11T04:19:49;99923.97;;;9.85;73.02
68634;BME280;55625;47.072;22.192;2023-05-11T04:22:15;99923.50;;;9.87;73.51
68634;BME280;55625;47.072;22.192;2023-05-11T04:24:41;99921.81;;;9.89;73.64
68634;BME280;55625;47.072;22.192;2023-05-11T04:27:06;99925.81;;;9.92;72.54
68634;BME280;55625;47.072;22.192;2023-05-11T04:29:32;99924.63;;;10.06;72.41
68634;BME280;55625;47.072;22.192;2023-05-11T04:31:58;99930.19;;;10.09;72.58
68634;BME280;55625;47.072;22.192;2023-05-11T04:34:24;99924.53;;;10.09;71.21
68634;BME280;55625;47.072;22.192;2023-05-11T04:36:50;99921.88;;;10.18;71.27
68634;BME280;55625;47.072;22.192;2023-05-11T04:39:16;99922.59;;;10.22;72.13
68634;BME280;55625;47.072;22.192;2023-05-11T04:41:45;99926.03;;;10.30;73.77
68634;BME280;55625;47.072;22.192;2023-05-11T04:44:11;99923.34;;;10.39;72.97
68634;BME280;55625;47.072;22.192;2023-05-11T04:46:37;99921.56;;;10.45;73.13
68634;BME280;55625;47.072;22.192;2023-05-11T04:49:06;99920.91;;;10.54;74.00
68634;BME280;55625;47.072;22.192;2023-05-11T04:51:32;99923.44;;;10.65;73.00
68634;BME280;55625;47.072;22.192;2023-05-11T04:53:58;99924.88;;;10.85;72.22
68634;BME280;55625;47.072;22.192;2023-05-11T04:56:24;99927.59;;;10.89;72.27
68634;BME280;55625;47.072;22.192;2023-05-11T04:58:50;99914.47;;;11.08;70.00
68634;BME280;55625;47.072;22.192;2023-05-11T05:01:16;99921.28;;;11.23;69.97
68634;BME280;55625;47.072;22.192;2023-05-11T05:03:42;99928.34;;;11.31;68.24
68634;BME280;55625;47.072;22.192;2023-05-11T05:06:08;99927.44;;;11.34;68.57
68634;BME280;55625;47.072;22.192;2023-05-11T05:08:34;99923.25;;;11.39;69.71
68634;BME280;55625;47.072;22.192;2023-05-11T05:11:00;99928.78;;;11.55;67.20
68634;BME280;55625;47.072;22.192;2023-05-11T05:13:26;99922.88;;;11.49;69.10
68634;BME280;55625;47.072;22.192;2023-05-11T05:15:52;99925.03;;;11.58;66.67
68634;BME280;55625;47.072;22.192;2023-05-11T05:18:17;99934.38;;;11.71;67.52
68634;BME280;55625;47.072;22.192;2023-05-11T05:20:43;99929.47;;;11.85;66.03
68634;BME280;55625;47.072;22.192;2023-05-11T05:23:09;99920.94;;;11.97;64.16
68634;BME280;55625;47.072;22.192;2023-05-11T05:25:35;99920.09;;;12.09;64.74
68634;BME280;55625;47.072;22.192;2023-05-11T05:28:01;99921.44;;;12.18;64.59
68634;BME280;55625;47.072;22.192;2023-05-11T05:30:26;99910.69;;;12.34;65.26
68634;BME280;55625;47.072;22.192;2023-05-11T05:32:52;99916.41;;;12.56;63.70
68634;BME280;55625;47.072;22.192;2023-05-11T05:35:19;99914.88;;;12.64;64.11
68634;BME280;55625;47.072;22.192;2023-05-11T05:37:45;99923.69;;;12.79;61.96
68634;BME280;55625;47.072;22.192;2023-05-11T05:40:11;99917.97;;;13.01;63.99
68634;BME280;55625;47.072;22.192;2023-05-11T05:42:37;99921.47;;;13.05;63.61
68634;BME280;55625;47.072;22.192;2023-05-11T05:45:03;99924.69;;;13.16;64.44
68634;BME280;55625;47.072;22.192;2023-05-11T05:47:29;99932.72;;;13.30;61.66
68634;BME280;55625;47.072;22.192;2023-05-11T05:49:55;99926.78;;;13.47;61.76
68634;BME280;55625;47.072;22.192;2023-05-11T05:52:21;99923.03;;;13.59;60.40
68634;BME280;55625;47.072;22.192;2023-05-11T05:54:46;99920.22;;;13.68;60.19
68634;BME280;55625;47.072;22.192;2023-05-11T05:57:12;99917.25;;;13.81;61.63
68634;BME280;55625;47.072;22.192;2023-05-11T05:59:38;99920.91;;;13.90;58.77
68634;BME280;55625;47.072;22.192;2023-05-11T06:02:04;99917.16;;;14.12;57.83
68634;BME280;55625;47.072;22.192;2023-05-11T06:04:31;99923.50;;;14.25;58.95
68634;BME280;55625;47.072;22.192;2023-05-11T06:06:56;99918.44;;;14.38;58.35
68634;BME280;55625;47.072;22.192;2023-05-11T06:09:23;99920.53;;;14.65;55.68
68634;BME280;55625;47.072;22.192;2023-05-11T06:11:49;99913.88;;;14.77;54.82
68634;BME280;55625;47.072;22.192;2023-05-11T06:14:15;99918.59;;;14.99;56.39
68634;BME280;55625;47.072;22.192;2023-05-11T06:16:41;99923.13;;;15.23;53.57
68634;BME280;55625;47.072;22.192;2023-05-11T06:19:07;99916.63;;;15.32;50.49
68634;BME280;55625;47.072;22.192;2023-05-11T06:21:33;99916.09;;;15.43;52.74
68634;BME280;55625;47.072;22.192;2023-05-11T06:23:59;99914.19;;;15.40;51.68
68634;BME280;55625;47.072;22.192;2023-05-11T06:26:24;99908.97;;;15.38;52.03
68634;BME280;55625;47.072;22.192;2023-05-11T06:28:51;99904.59;;;15.52;49.99
68634;BME280;55625;47.072;22.192;2023-05-11T06:31:17;99902.66;;;15.67;49.92
68634;BME280;55625;47.072;22.192;2023-05-11T06:33:43;99907.13;;;15.59;49.20
68634;BME280;55625;47.072;22.192;2023-05-11T06:36:09;99912.69;;;15.96;48.83
68634;BME280;55625;47.072;22.192;2023-05-11T06:38:35;99912.19;;;15.97;48.23
68634;BME280;55625;47.072;22.192;2023-05-11T06:41:01;99905.16;;;16.22;48.04
68634;BME280;55625;47.072;22.192;2023-05-11T06:43:27;99908.53;;;16.21;50.73
68634;BME280;55625;47.072;22.192;2023-05-11T06:45:52;99902.03;;;16.59;50.55
68634;BME280;55625;47.072;22.192;2023-05-11T06:48:18;99900.78;;;16.74;48.94
68634;BME280;55625;47.072;22.192;2023-05-11T06:50:44;99898.13;;;16.71;45.55
68634;BME280;55625;47.072;22.192;2023-05-11T06:53:10;99900.09;;;16.80;45.39
68634;BME280;55625;47.072;22.192;2023-05-11T06:55:36;99893.78;;;16.75;44.75
68634;BME280;55625;47.072;22.192;2023-05-11T06:58:02;99888.84;;;16.76;45.48
68634;BME280;55625;47.072;22.192;2023-05-11T07:00:28;99898.44;;;17.02;45.06
68634;BME280;55625;47.072;22.192;2023-05-11T07:02:54;99891.22;;;17.22;45.26
68634;BME280;55625;47.072;22.192;2023-05-11T07:05:19;99887.06;;;17.23;45.26
68634;BME280;55625;47.072;22.192;2023-05-11T07:07:45;99898.56;;;17.23;45.05
68634;BME280;55625;47.072;22.192;2023-05-11T07:10:11;99894.59;;;17.20;46.45
68634;BME280;55625;47.072;22.192;2023-05-11T07:12:37;99889.50;;;17.45;48.14
68634;BME280;55625;47.072;22.192;2023-05-11T07:15:03;99893.97;;;17.46;45.87
68634;BME280;55625;47.072;22.192;2023-05-11T07:17:29;99885.75;;;17.53;48.83
68634;BME280;55625;47.072;22.192;2023-05-11T07:19:55;99879.38;;;17.64;44.30
68634;BME280;55625;47.072;22.192;2023-05-11T07:22:21;99882.53;;;17.81;43.40
68634;BME280;55625;47.072;22.192;2023-05-11T07:24:46;99879.25;;;17.88;40.28
68634;BME280;55625;47.072;22.192;2023-05-11T07:27:12;99877.88;;;17.83;40.11
68634;BME280;55625;47.072;22.192;2023-05-11T07:29:39;99883.25;;;17.76;40.71
68634;BME280;55625;47.072;22.192;2023-05-11T07:32:05;99883.06;;;17.99;41.99
68634;BME280;55625;47.072;22.192;2023-05-11T07:34:32;99876.97;;;18.12;39.40
68634;BME280;55625;47.072;22.192;2023-05-11T07:36:58;99879.13;;;18.17;37.89
68634;BME280;55625;47.072;22.192;2023-05-11T07:39:23;99872.44;;;18.46;39.33
68634;BME280;55625;47.072;22.192;2023-05-11T07:41:49;99878.13;;;18.41;37.69
68634;BME280;55625;47.072;22.192;2023-05-11T07:44:15;99882.19;;;18.34;37.70
68634;BME280;55625;47.072;22.192;2023-05-11T07:46:41;99882.84;;;18.44;38.84
68634;BME280;55625;47.072;22.192;2023-05-11T07:49:07;99880.34;;;18.31;36.53
68634;BME280;55625;47.072;22.192;2023-05-11T07:51:34;99885.28;;;18.51;37.38
68634;BME280;55625;47.072;22.192;2023-05-11T07:54:00;99877.09;;;18.64;36.60
68634;BME280;55625;47.072;22.192;2023-05-11T07:56:26;99869.91;;;18.74;36.20
68634;BME280;55625;47.072;22.192;2023-05-11T07:58:52;99887.72;;;18.78;36.27
68634;BME280;55625;47.072;22.192;2023-05-11T08:01:17;99881.78;;;18.87;35.75
68634;BME280;55625;47.072;22.192;2023-05-11T08:03:43;99879.69;;;18.88;36.32
68634;BME280;55625;47.072;22.192;2023-05-11T08:06:09;99885.91;;;18.81;35.80
68634;BME280;55625;47.072;22.192;2023-05-11T08:08:36;99883.25;;;19.03;38.86
68634;BME280;55625;47.072;22.192;2023-05-11T08:11:02;99878.41;;;19.46;37.29
68634;BME280;55625;47.072;22.192;2023-05-11T08:13:28;99877.59;;;19.46;34.44
68634;BME280;55625;47.072;22.192;2023-05-11T08:15:54;99872.09;;;19.42;34.48
68634;BME280;55625;47.072;22.192;2023-05-11T08:18:20;99873.31;;;19.62;38.07
68634;BME280;55625;47.072;22.192;2023-05-11T08:20:46;99875.53;;;19.83;36.08
68634;BME280;55625;47.072;22.192;2023-05-11T08:23:12;99874.63;;;19.61;36.00
68634;BME280;55625;47.072;22.192;2023-05-11T08:25:53;99875.78;;;19.80;35.37
68634;BME280;55625;47.072;22.192;2023-05-11T08:28:20;99877.63;;;19.83;36.71
68634;BME280;55625;47.072;22.192;2023-05-11T08:30:52;99883.88;;;19.76;37.23
68634;BME280;55625;47.072;22.192;2023-05-11T08:33:18;99870.09;;;19.91;37.55
68634;BME280;55625;47.072;22.192;2023-05-11T08:35:44;99874.66;;;20.14;35.51
68634;BME280;55625;47.072;22.192;2023-05-11T08:38:12;99883.78;;;20.02;35.29
68634;BME280;55625;47.072;22.192;2023-05-11T08:40:39;99875.66;;;20.00;35.34
68634;BME280;55625;47.072;22.192;2023-05-11T08:43:13;99872.22;;;19.96;35.29
68634;BME280;55625;47.072;22.192;2023-05-11T08:45:43;99876.16;;;19.99;36.27
68634;BME280;55625;47.072;22.192;2023-05-11T08:48:13;99868.28;;;19.94;36.11
68634;BME280;55625;47.072;22.192;2023-05-11T08:50:40;99864.53;;;19.82;36.86
68634;BME280;55625;47.072;22.192;2023-05-11T08:53:06;99860.78;;;20.13;35.15
68634;BME280;55625;47.072;22.192;2023-05-11T08:55:32;99847.94;;;20.20;35.51
68634;BME280;55625;47.072;22.192;2023-05-11T08:58:01;99860.06;;;20.24;34.26
68634;BME280;55625;47.072;22.192;2023-05-11T09:00:29;99854.72;;;20.05;34.90
68634;BME280;55625;47.072;22.192;2023-05-11T09:02:56;99850.66;;;19.86;35.50
68634;BME280;55625;47.072;22.192;2023-05-11T09:05:23;99858.50;;;19.80;35.12
68634;BME280;55625;47.072;22.192;2023-05-11T09:07:53;99850.75;;;19.97;35.87
68634;BME280;55625;47.072;22.192;2023-05-11T09:10:20;99842.66;;;20.07;38.29
68634;BME280;55625;47.072;22.192;2023-05-11T09:12:46;99847.34;;;19.56;37.07
68634;BME280;55625;47.072;22.192;2023-05-11T09:15:12;99838.78;;;19.30;36.17
68634;BME280;55625;47.072;22.192;2023-05-11T09:17:38;99851.59;;;19.61;35.51
68634;BME280;55625;47.072;22.192;2023-05-11T09:20:05;99837.78;;;20.30;36.42
68634;BME280;55625;47.072;22.192;2023-05-11T09:22:50;99838.16;;;20.54;35.04
68634;BME280;55625;47.072;22.192;2023-05-11T09:25:16;99838.91;;;20.49;34.68
68634;BME280;55625;47.072;22.192;2023-05-11T09:27:44;99837.38;;;20.54;34.87
68634;BME280;55625;47.072;22.192;2023-05-11T09:30:22;99838.16;;;20.54;34.99
68634;BME280;55625;47.072;22.192;2023-05-11T09:32:51;99835.31;;;20.76;33.42
68634;BME280;55625;47.072;22.192;2023-05-11T09:38:11;99829.06;;;21.00;36.89
68634;BME280;55625;47.072;22.192;2023-05-11T09:40:40;99831.69;;;21.21;34.79
68634;BME280;55625;47.072;22.192;2023-05-11T09:43:18;99823.03;;;21.54;33.18
68634;BME280;55625;47.072;22.192;2023-05-11T09:45:49;99819.91;;;21.30;32.15
68634;BME280;55625;47.072;22.192;2023-05-11T09:50:42;99819.09;;;21.35;34.53
68634;BME280;55625;47.072;22.192;2023-05-11T09:53:08;99817.47;;;20.78;33.93
68634;BME280;55625;47.072;22.192;2023-05-11T09:55:34;99816.44;;;20.70;34.58
68634;BME280;55625;47.072;22.192;2023-05-11T09:58:01;99815.94;;;20.88;33.82
68634;BME280;55625;47.072;22.192;2023-05-11T10:00:27;99806.75;;;21.01;35.68
68634;BME280;55625;47.072;22.192;2023-05-11T10:03:05;99812.53;;;21.34;33.78
68634;BME280;55625;47.072;22.192;2023-05-11T10:05:35;99808.09;;;21.33;33.99
68634;BME280;55625;47.072;22.192;2023-05-11T10:08:04;99803.34;;;21.42;33.67
68634;BME280;55625;47.072;22.192;2023-05-11T10:10:32;99797.59;;;21.47;34.01
68634;BME280;55625;47.072;22.192;2023-05-11T10:13:01;99787.34;;;21.52;33.97
68634;BME280;55625;47.072;22.192;2023-05-11T10:15:28;99793.91;;;21.52;33.67
68634;BME280;55625;47.072;22.192;2023-05-11T10:17:56;99795.88;;;21.91;36.05
68634;BME280;55625;47.072;22.192;2023-05-11T10:20:24;99786.50;;;21.62;33.70
68634;BME280;55625;47.072;22.192;2023-05-11T10:22:52;99792.44;;;22.04;35.30
68634;BME280;55625;47.072;22.192;2023-05-11T10:25:24;99791.16;;;21.88;33.16
68634;BME280;55625;47.072;22.192;2023-05-11T10:27:51;99790.31;;;22.10;31.60
68634;BME280;55625;47.072;22.192;2023-05-11T10:30:18;99788.50;;;21.95;32.42
68634;BME280;55625;47.072;22.192;2023-05-11T10:32:45;99786.16;;;22.05;32.05
68634;BME280;55625;47.072;22.192;2023-05-11T10:35:13;99792.41;;;22.15;31.73
68634;BME280;55625;47.072;22.192;2023-05-11T10:37:40;99781.69;;;22.04;32.09
68634;BME280;55625;47.072;22.192;2023-05-11T10:40:08;99787.31;;;22.32;32.77
68634;BME280;55625;47.072;22.192;2023-05-11T10:54:46;99764.53;;;22.58;33.21
68634;BME280;55625;47.072;22.192;2023-05-11T11:00:11;99765.81;;;21.42;32.97
68634;BME280;55625;47.072;22.192;2023-05-11T11:02:40;99762.31;;;21.71;34.52
68634;BME280;55625;47.072;22.192;2023-05-11T11:05:06;99758.53;;;21.98;33.71
68634;BME280;55625;47.072;22.192;2023-05-11T11:08:08;99756.56;;;22.29;31.74
68634;BME280;55625;47.072;22.192;2023-05-11T11:13:05;99752.03;;;22.45;32.62
68634;BME280;55625;47.072;22.192;2023-05-11T11:20:51;99741.66;;;22.19;30.92
68634;BME280;55625;47.072;22.192;2023-05-11T11:23:43;99741.19;;;21.98;31.17
68634;BME280;55625;47.072;22.192;2023-05-11T11:26:12;99749.50;;;21.61;34.14
68634;BME280;55625;47.072;22.192;2023-05-11T11:33:54;99744.28;;;21.37;33.04
68634;BME280;55625;47.072;22.192;2023-05-11T11:39:25;99735.72;;;21.89;33.11
68634;BME280;55625;47.072;22.192;2023-05-11T11:42:06;99734.84;;;21.48;32.50
68634;BME280;55625;47.072;22.192;2023-05-11T11:44:36;99736.69;;;21.39;33.81
68634;BME280;55625;47.072;22.192;2023-05-11T11:47:19;99736.81;;;21.81;32.58
68634;BME280;55625;47.072;22.192;2023-05-11T11:52:33;99740.13;;;22.01;34.18
68634;BME280;55625;47.072;22.192;2023-05-11T11:55:02;99738.59;;;22.06;34.10
68634;BME280;55625;47.072;22.192;2023-05-11T12:00:04;99729.88;;;22.00;33.49
68634;BME280;55625;47.072;22.192;2023-05-11T12:02:32;99726.56;;;21.85;34.28
68634;BME280;55625;47.072;22.192;2023-05-11T12:05:20;99722.09;;;21.84;34.19
68634;BME280;55625;47.072;22.192;2023-05-11T12:07:51;99729.84;;;21.37;34.37
68634;BME280;55625;47.072;22.192;2023-05-11T12:10:20;99731.44;;;21.38;33.26
68634;BME280;55625;47.072;22.192;2023-05-11T12:12:49;99729.88;;;21.20;33.32
68634;BME280;55625;47.072;22.192;2023-05-11T12:15:29;99726.47;;;21.16;34.73
68634;BME280;55625;47.072;22.192;2023-05-11T12:17:57;99730.41;;;21.19;34.04
68634;BME280;55625;47.072;22.192;2023-05-11T12:20:23;99726.97;;;21.37;34.44
68634;BME280;55625;47.072;22.192;2023-05-11T12:22:50;99712.31;;;21.01;36.31
68634;BME280;55625;47.072;22.192;2023-05-11T12:25:17;99708.41;;;20.71;34.66
68634;BME280;55625;47.072;22.192;2023-05-11T12:27:55;99707.34;;;20.74;33.96
68634;BME280;55625;47.072;22.192;2023-05-11T12:30:29;99705.72;;;21.34;32.48
68634;BME280;55625;47.072;22.192;2023-05-11T12:32:56;99705.38;;;21.60;33.60
68634;BME280;55625;47.072;22.192;2023-05-11T12:35:30;99709.66;;;21.20;34.41
68634;BME280;55625;47.072;22.192;2023-05-11T12:37:59;99709.16;;;21.27;34.59
68634;BME280;55625;47.072;22.192;2023-05-11T12:40:26;99702.06;;;21.17;33.17
68634;BME280;55625;47.072;22.192;2023-05-11T12:42:58;99689.97;;;21.35;35.77
68634;BME280;55625;47.072;22.192;2023-05-11T12:45:25;99689.91;;;21.58;35.69
68634;BME280;55625;47.072;22.192;2023-05-11T12:47:53;99689.13;;;21.57;33.84
68634;BME280;55625;47.072;22.192;2023-05-11T12:50:20;99685.53;;;21.12;32.64
68634;BME280;55625;47.072;22.192;2023-05-11T12:52:46;99687.94;;;20.80;34.40
68634;BME280;55625;47.072;22.192;2023-05-11T12:55:13;99683.47;;;20.79;33.80
68634;BME280;55625;47.072;22.192;2023-05-11T12:57:42;99679.81;;;20.78;32.85
68634;BME280;55625;47.072;22.192;2023-05-11T13:02:35;99684.28;;;20.63;34.39
68634;BME280;55625;47.072;22.192;2023-05-11T13:05:14;99671.44;;;20.69;34.21
68634;BME280;55625;47.072;22.192;2023-05-11T13:07:40;99669.31;;;20.98;33.34
68634;BME280;55625;47.072;22.192;2023-05-11T13:10:07;99676.63;;;21.10;35.25
68634;BME280;55625;47.072;22.192;2023-05-11T13:12:33;99661.19;;;20.96;35.00
68634;BME280;55625;47.072;22.192;2023-05-11T13:15:08;99663.03;;;20.83;33.88
68634;BME280;55625;47.072;22.192;2023-05-11T13:17:39;99659.34;;;20.99;35.42
68634;BME280;55625;47.072;22.192;2023-05-11T13:20:23;99651.94;;;21.31;35.19
68634;BME280;55625;47.072;22.192;2023-05-11T13:23:06;99657.63;;;21.54;35.36
68634;BME280;55625;47.072;22.192;2023-05-11T13:25:50;99663.34;;;21.65;32.84
68634;BME280;55625;47.072;22.192;2023-05-11T13:28:20;99653.66;;;21.57;32.84
68634;BME280;55625;47.072;22.192;2023-05-11T13:30:46;99654.22;;;21.50;33.10
68634;BME280;55625;47.072;22.192;2023-05-11T13:33:13;99654.22;;;21.50;31.50
68634;BME280;55625;47.072;22.192;2023-05-11T13:35:40;99654.22;;;21.50;34.70
68634;BME280;55625;47.072;22.192;2023-05-11T13:38:07;99647.63;;;21.55;32.84
68634;BME280;55625;47.072;22.192;2023-05-11T13:40:34;99659.94;;;21.61;34.78
68634;BME280;55625;47.072;22.192;2023-05-11T13:43:00;99650.03;;;21.51;32.46
68634;BME280;55625;47.072;22.192;2023-05-11T13:45:26;99653.00;;;21.28;34.42
68634;BME280;55625;47.072;22.192;2023-05-11T13:47:53;99646.97;;;21.15;33.43
68634;BME280;55625;47.072;22.192;2023-05-11T13:50:23;99640.41;;;21.09;34.46